Aglasan, Turkey

6:14 PM +03 on March 29, 2017 (GMT +0300)
MAYCEV | | Change Station

Elev 768 ft 40.22 °N, 29.50 °E | Updated 13 minutes ago

Clear
Clear
70.0 °F
Feels Like 70.0 °F
N
9.0
Wind Variable Wind from NNE
Gusts 13.0 mph

Today
High -- | Low -- °F
--% Chance of Precip.
Yesterday
High -- | Low -- °F
Precip. -- in
Pressure 30.01 in
Visibility -9999.0 miles
Clouds
Dew Point 35 °F
Humidity 28%
Rainfall 0.00 in
Snow Depth Not available.
6:51 AM 7:24 PM
Waxing Crescent, 3% visible
METAR LTBR 291450Z 36011KT CAVOK 20/02 Q1016 NOSIG RMK RWY07 01013KT
Pressure 30.01 in
Visibility -9999.0 miles
Clouds
Dew Point 35 °F
Humidity 28%
Rainfall 0.00 in
Snow Depth Not available.
6:51 AM 7:24 PM
Waxing Crescent, 3% visible
METAR LTBR 291450Z 36011KT CAVOK 20/02 Q1016 NOSIG RMK RWY07 01013KT

Get Severe Weather Alerts

Thanks for signing up!

Be on the lookout for a verification email in your inbox.

You'll start receiving the daily forecast at 8 AM.

×

10-Day Weather Forecast

×

Almanac

Astronomy

Mar. 29, 2017 Rise Set
Actual Time
Civil Twilight
Nautical Twilight
Astronomical Twilight
Moon
Length of Visible Light
Length of Day
Tomorrow will be .
, % of the Moon is Illuminated

Today's Extremes

Country Highs Country Lows

Community

WunderPhotos

Upload Photos

1,962,540 photos uploaded!

WunderBlog® & News

Nearby

Air Quality

  Air Quality AQ Index Pollutant
Not available.

Snow Depth

Station Depth Elevation

Earthquake Activity

City Distance Mag. Time & Date
Minimum magnitude displayed is 2.5.

Earthquake Activity

City Distance Mag. Time & Date
Minimum magnitude displayed is 2.5.

Coastal Water Temperatures

Place Temperature

Stations

Nearby Weather Stations

Station Location Temp. Windchill Dew Point Humidity Wind Precip. Elev Updated Type